Historique des mesures à Cassis (13260), France
Quotidien Résumé Mars 12, 2021 Unités:  Métrique    US   Métrique/US
Quotidien Hebdomadaire Mensuel Annuel
  Maximum: Minimum: Moyenne:
Température: 20.3 °C 13 °C 16 °C
Point de rosée: 9.6 °C 5.5 °C 7.1 °C
Humidité: 62% 44% 56%
Vitesse du vent: 32km/h 3.6km/h 12.2km/h
Rafales: 36km/h - -
Vent- - NW
Pression: 1015.4 hPa 1009.4 hPa -
Précipitations: 0.0 mm    
Historical Graphs
 
 
Mesures pour : Mars 12, 2021
Heure Temperature Point de rosée Pression Vent Vitesse du vent Rafales Humidité Pluie (par heure)
00:11 14.4 °C 7 °C 1015.3 hPa NW 3.6 km/h 5.4 km/h 61% 0.0 mm
01:11 13.8 °C 6.6 °C 1015.4 hPa NNW 4 km/h 9.7 km/h 62% 0.0 mm
02:11 13.8 °C 6.4 °C 1015.1 hPa NNW 6.8 km/h 13.7 km/h 61% 0.0 mm
03:11 13.6 °C 5.5 °C 1015.0 hPa NNW 8.3 km/h 18.4 km/h 58% 0.0 mm
04:11 13.8 °C 5.9 °C 1014.2 hPa NNW 15.1 km/h 15.8 km/h 59% 0.0 mm
05:11 13.5 °C 5.6 °C 1013.8 hPa NW 14.4 km/h 17.3 km/h 59% 0.0 mm
06:11 13.3 °C 5.7 °C 1013.5 hPa NW 16.6 km/h 17.3 km/h 60% 0.0 mm
07:11 13 °C 5.6 °C 1013.3 hPa NW 8.3 km/h 15.5 km/h 61% 0.0 mm
08:11 13.1 °C 5.7 °C 1013.3 hPa WNW 10.1 km/h 16.6 km/h 61% 0.0 mm
09:11 14.1 °C 6.7 °C 1013.5 hPa NNW 7.2 km/h 13.3 km/h 61% 0.0 mm
10:11 15.2 °C 7.7 °C 1013.2 hPa NNW 12.6 km/h 12.6 km/h 61% 0.0 mm
11:11 16.8 °C 9.3 °C 1012.8 hPa NNW 4.3 km/h 14 km/h 61% 0.0 mm
12:11 18.3 °C 9.6 °C 1012.5 hPa WNW 5.4 km/h 14.4 km/h 57% 0.0 mm
13:11 19.2 °C 9.4 °C 1011.8 hPa NW 4.3 km/h 13.3 km/h 53% 0.0 mm
14:11 19.6 °C 8.9 °C 1011.0 hPa West 10.4 km/h 26.3 km/h 50% 0.0 mm
15:11 20.3 °C 8.3 °C 1010.1 hPa West 18.7 km/h 36 km/h 46% 0.0 mm
16:11 20.2 °C 7.5 °C 1010.0 hPa West 16.6 km/h 23.4 km/h 44% 0.0 mm
17:11 19.8 °C 7.5 °C 1009.7 hPa WNW 19.1 km/h 29.5 km/h 45% 0.0 mm
18:11 18.8 °C 7.5 °C 1009.4 hPa West 17.6 km/h 30.6 km/h 48% 0.0 mm
19:11 16.9 °C 7 °C 1010.3 hPa WNW 32 km/h 32 km/h 52% 0.0 mm
20:11 16 °C 6.7 °C 1010.5 hPa WNW 11.9 km/h 21.2 km/h 54% 0.0 mm
21:11 15.9 °C 6.6 °C 1010.4 hPa West 19.4 km/h 36 km/h 54% 0.0 mm
22:11 15.5 °C 6.5 °C 1010.4 hPa WNW 9.7 km/h 16.6 km/h 55% 0.0 mm
23:11 14.9 °C 6.4 °C 1010.5 hPa WNW 16.6 km/h 25.6 km/h 57% 0.0 mm
Observations météo à CASSIS
WU-History script by Weather Underground - 2 mb